Time;durP1;ratioP1;P1;durP2;ratioP2;P2;SDS_P1;SDS_P2;PMS_P1;PMS_P2;Temp;Humidity;BMP_temperature;BMP_pressure;BME280_temperature;BME280_humidity;BME280_pressure;Samples;Min_cycle;Max_cycle;Signal;HPM_P1;HPM_P2
2023/08/27 00:00:26;;;;;;;1.10;1.10;;;;;;;14.69;91.45;100941.94;5056305;28;20075;-85
2023/08/27 00:02:51;;;;;;;1.50;1.40;;;;;;;14.69;93.21;100931.50;5056913;28;20033;-85
2023/08/27 00:05:17;;;;;;;1.30;1.20;;;;;;;14.70;93.18;100925.38;5055548;28;20025;-85
2023/08/27 00:07:42;;;;;;;1.37;1.27;;;;;;;14.67;92.97;100939.41;5058333;28;20029;-86
2023/08/27 00:10:08;;;;;;;2.47;1.60;;;;;;;14.61;94.16;100934.31;5060600;28;20025;-86
2023/08/27 00:12:37;;;;;;;1.90;1.60;;;;;;;14.55;95.74;100926.69;5049774;28;20034;-86
2023/08/27 00:15:03;;;;;;;2.25;1.67;;;;;;;14.46;96.41;100918.22;5036837;28;20397;-86
2023/08/27 00:17:29;;;;;;;2.10;1.90;;;;;;;14.36;95.77;100898.50;5035851;28;20032;-86
2023/08/27 00:19:54;;;;;;;2.23;1.70;;;;;;;14.29;97.70;100890.03;5035769;28;20037;-86
2023/08/27 00:22:20;;;;;;;1.80;1.70;;;;;;;14.28;97.09;100890.03;5036152;28;20032;-85
2023/08/27 00:24:45;;;;;;;1.73;1.63;;;;;;;14.20;96.95;100888.53;5035319;28;20075;-84
2023/08/27 00:27:10;;;;;;;1.73;1.63;;;;;;;14.16;96.31;100883.44;5036387;28;20028;-84
2023/08/27 00:29:35;;;;;;;1.60;1.50;;;;;;;14.14;96.11;100874.81;5036061;28;20482;-83
2023/08/27 00:32:01;;;;;;;1.70;1.60;;;;;;;14.11;96.11;100864.44;5035195;28;20021;-84
2023/08/27 00:34:34;;;;;;;1.20;1.10;;;;;;;14.13;95.65;100850.44;5035454;28;20097;-84
2023/08/27 00:37:00;;;;;;;1.10;1.00;;;;;;;14.15;95.37;100851.25;5036061;28;20637;-84
2023/08/27 00:39:26;;;;;;;0.95;0.90;;;;;;;14.17;95.63;100853.84;5034498;28;20086;-84
2023/08/27 00:41:52;;;;;;;1.38;1.27;;;;;;;14.14;96.58;100841.72;5035867;28;20080;-84
2023/08/27 00:44:17;;;;;;;0.90;0.90;;;;;;;14.16;95.76;100852.13;5035243;28;20029;-84
2023/08/27 00:46:43;;;;;;;0.80;0.80;;;;;;;14.15;95.74;100847.81;5034857;28;20100;-84
2023/08/27 00:49:10;;;;;;;0.57;0.57;;;;;;;14.15;95.35;100840.81;5035881;28;20029;-84
2023/08/27 00:51:37;;;;;;;0.52;0.52;;;;;;;14.17;94.83;100841.63;5035726;28;20108;-84
2023/08/27 00:54:04;;;;;;;0.70;0.70;;;;;;;14.14;95.06;100822.59;5034968;28;20112;-84
2023/08/27 00:56:30;;;;;;;1.27;0.90;;;;;;;14.09;94.63;100822.75;5035523;28;20044;-84
2023/08/27 00:58:55;;;;;;;1.00;0.90;;;;;;;14.10;94.76;100824.47;5035353;28;20023;-84
2023/08/27 01:01:22;;;;;;;0.60;0.60;;;;;;;14.14;94.67;100831.28;5033074;28;20028;-84
2023/08/27 01:03:48;;;;;;;1.15;0.98;;;;;;;14.14;94.44;100835.66;5035556;28;20022;-84
2023/08/27 01:06:16;;;;;;;0.97;0.97;;;;;;;14.15;94.50;100837.38;5035364;28;20027;-84
2023/08/27 01:08:56;;;;;;;0.88;0.88;;;;;;;14.14;94.70;100833.88;5034635;28;20482;-84
2023/08/27 01:11:32;;;;;;;0.90;0.90;;;;;;;14.12;94.55;100832.25;5048144;28;20029;-84
2023/08/27 01:14:03;;;;;;;0.83;0.83;;;;;;;14.10;94.44;100842.72;5053416;28;20420;-83
2023/08/27 01:16:29;;;;;;;1.20;1.10;;;;;;;14.06;94.46;100828.06;5054794;28;20481;-84
2023/08/27 01:18:58;;;;;;;2.43;1.83;;;;;;;14.03;94.29;100821.19;5054894;28;20032;-84
2023/08/27 01:21:24;;;;;;;2.20;1.80;;;;;;;13.94;94.45;100816.25;5053596;28;20103;-84
2023/08/27 01:23:55;;;;;;;2.65;1.90;;;;;;;13.97;94.61;100820.50;5054688;28;20025;-84
2023/08/27 01:26:47;;;;;;;3.47;2.00;;;;;;;13.95;94.69;100820.56;5054676;28;20049;-84
2023/08/27 01:29:40;;;;;;;2.25;1.80;;;;;;;13.90;94.71;100827.66;5053535;28;20488;-84
2023/08/27 01:32:15;;;;;;;2.13;1.75;;;;;;;13.87;94.99;100819.91;5054330;28;20039;-84
2023/08/27 01:34:41;;;;;;;2.90;1.83;;;;;;;13.85;94.79;100832.16;5052216;28;20025;-84
2023/08/27 01:37:09;;;;;;;1.73;1.60;;;;;;;13.80;94.58;100823.63;5053394;28;20359;-83
2023/08/27 01:39:35;;;;;;;1.77;1.50;;;;;;;13.77;94.49;100824.56;5054404;28;20124;-83
2023/08/27 01:42:00;;;;;;;1.57;1.40;;;;;;;13.75;94.81;100823.75;5040523;28;20034;-84
2023/08/27 01:44:25;;;;;;;1.50;1.40;;;;;;;13.71;94.92;100825.59;5033732;28;20083;-84
2023/08/27 01:46:50;;;;;;;1.37;1.07;;;;;;;13.69;95.12;100819.56;5034009;28;20432;-84
2023/08/27 01:49:16;;;;;;;1.30;1.20;;;;;;;13.66;94.95;100824.03;5032894;28;20437;-84
2023/08/27 01:51:41;;;;;;;1.20;1.10;;;;;;;13.66;95.38;100821.41;5034548;28;20021;-84
2023/08/27 01:54:08;;;;;;;1.33;1.30;;;;;;;13.64;95.43;100818.00;5033893;28;20022;-84
2023/08/27 01:56:33;;;;;;;1.75;1.50;;;;;;;13.62;95.33;100811.97;5033592;28;20037;-84
2023/08/27 01:58:58;;;;;;;1.23;1.13;;;;;;;13.57;95.20;100804.25;5034072;28;20469;-84
2023/08/27 02:01:26;;;;;;;1.53;1.43;;;;;;;13.59;95.59;100815.50;5033818;28;20022;-84
2023/08/27 02:03:51;;;;;;;1.40;1.30;;;;;;;13.56;95.77;100800.81;5033358;28;20021;-84
2023/08/27 02:06:17;;;;;;;1.77;1.50;;;;;;;13.58;96.06;100800.75;5033983;28;20362;-84
2023/08/27 02:08:42;;;;;;;1.40;1.30;;;;;;;13.57;96.50;100801.66;5033875;28;20021;-84
2023/08/27 02:11:07;;;;;;;1.33;1.00;;;;;;;13.62;96.64;100809.34;5032206;28;20025;-83
2023/08/27 02:13:33;;;;;;;0.77;0.77;;;;;;;13.60;97.22;100814.63;5033902;28;20025;-84
2023/08/27 02:15:58;;;;;;;0.80;0.80;;;;;;;13.63;96.64;100811.06;5033776;28;20018;-84
2023/08/27 02:18:23;;;;;;;1.13;1.03;;;;;;;13.63;97.05;100809.28;5033001;28;20037;-84
2023/08/27 02:20:49;;;;;;;0.80;0.70;;;;;;;13.65;97.14;100804.88;5033776;28;20036;-84
2023/08/27 02:23:14;;;;;;;0.80;0.80;;;;;;;13.65;96.85;100796.22;5033079;28;20032;-84
2023/08/27 02:25:39;;;;;;;0.60;0.60;;;;;;;13.70;97.67;100807.38;5032644;28;20087;-84
2023/08/27 02:28:05;;;;;;;0.87;0.80;;;;;;;13.67;97.71;100810.09;5032708;28;20045;-84
2023/08/27 02:30:30;;;;;;;0.90;0.90;;;;;;;13.66;99.06;100811.81;5033341;28;20029;-84
2023/08/27 02:32:55;;;;;;;1.00;1.00;;;;;;;13.64;99.71;100816.22;5032614;28;20025;-84
2023/08/27 02:35:20;;;;;;;0.90;0.90;;;;;;;13.62;99.72;100814.56;5032978;28;20381;-85
2023/08/27 02:37:46;;;;;;;0.60;0.60;;;;;;;13.60;99.44;100812.00;5033825;28;20036;-85
2023/08/27 02:40:13;;;;;;;1.47;1.37;;;;;;;13.57;100.00;100802.50;5032282;28;20029;-85
2023/08/27 02:42:39;;;;;;;1.35;1.02;;;;;;;13.57;100.00;100819.91;5033134;28;20045;-86
2023/08/27 02:45:05;;;;;;;1.37;0.93;;;;;;;13.56;100.00;100815.59;5088462;23;20402;-86
2023/08/27 02:47:30;;;;;;;1.40;1.30;;;;;;;13.56;100.00;100808.63;5012469;28;20030;-86
2023/08/27 02:49:55;;;;;;;1.57;1.30;;;;;;;13.55;100.00;100814.75;5013708;28;20037;-86
2023/08/27 02:52:21;;;;;;;1.30;1.20;;;;;;;13.57;100.00;100820.75;5012984;28;20030;-87
2023/08/27 02:54:47;;;;;;;1.50;1.40;;;;;;;13.56;100.00;100815.59;5013410;28;20104;-86
2023/08/27 02:57:13;;;;;;;2.00;1.70;;;;;;;13.57;100.00;100820.75;5012826;28;20034;-86
2023/08/27 02:59:38;;;;;;;2.00;1.73;;;;;;;13.51;100.00;100809.66;5012135;28;20032;-85
2023/08/27 03:02:03;;;;;;;1.87;1.60;;;;;;;13.55;100.00;100813.88;5012891;28;20018;-86
2023/08/27 03:04:28;;;;;;;1.50;1.40;;;;;;;13.56;100.00;100816.47;5013198;28;20025;-85
2023/08/27 03:06:54;;;;;;;1.53;1.43;;;;;;;13.54;100.00;100806.94;5012739;28;20026;-86
2023/08/27 03:09:19;;;;;;;2.07;1.87;;;;;;;13.57;100.00;100815.53;5012355;28;20044;-86
2023/08/27 03:11:44;;;;;;;1.93;1.73;;;;;;;13.58;100.00;100819.00;5013228;28;20029;-86
2023/08/27 03:14:10;;;;;;;1.40;1.30;;;;;;;13.53;100.00;100811.31;5012364;28;20425;-86
2023/08/27 03:16:36;;;;;;;1.50;1.40;;;;;;;13.63;100.00;100818.88;5013099;28;20057;-85
2023/08/27 03:19:02;;;;;;;0.80;0.80;;;;;;;13.64;100.00;100818.00;5012812;28;20067;-86
2023/08/27 03:21:27;;;;;;;1.20;1.10;;;;;;;13.62;100.00;100814.56;5012258;28;20026;-85
2023/08/27 03:23:56;;;;;;;1.00;1.00;;;;;;;13.64;100.00;100812.78;5012099;28;20054;-86
2023/08/27 03:26:27;;;;;;;0.95;0.95;;;;;;;13.59;100.00;100811.13;5008604;28;20478;-86
2023/08/27 03:28:52;;;;;;;1.30;1.20;;;;;;;13.69;100.00;100823.91;5012211;28;20109;-86
2023/08/27 03:31:17;;;;;;;1.13;1.10;;;;;;;13.69;100.00;100829.13;5012679;28;20541;-85
2023/08/27 03:33:43;;;;;;;0.67;0.67;;;;;;;13.68;100.00;100823.06;5013143;28;20026;-85
2023/08/27 03:36:08;;;;;;;0.87;0.87;;;;;;;13.71;100.00;100838.63;5012132;28;20026;-84
2023/08/27 03:38:33;;;;;;;1.27;1.17;;;;;;;13.71;100.00;100832.56;5013060;28;20160;-84
2023/08/27 03:40:59;;;;;;;1.30;1.20;;;;;;;13.68;100.00;100827.44;5012778;28;20117;-85
2023/08/27 03:43:24;;;;;;;1.67;1.20;;;;;;;13.67;100.00;100823.97;5011895;28;20030;-85
2023/08/27 03:45:49;;;;;;;1.77;1.30;;;;;;;13.54;100.00;100797.41;5012694;28;20470;-85
2023/08/27 03:48:15;;;;;;;1.40;1.30;;;;;;;13.63;100.00;100814.50;5012265;28;20071;-84
2023/08/27 03:50:40;;;;;;;1.70;1.03;;;;;;;13.65;100.00;100807.50;5012390;28;20030;-85
2023/08/27 03:53:06;;;;;;;1.13;1.07;;;;;;;13.56;100.00;100795.59;5012326;28;20026;-85
2023/08/27 03:55:49;;;;;;;1.10;1.10;;;;;;;13.51;100.00;100775.78;5006174;28;20033;-86
2023/08/27 03:58:15;;;;;;;0.90;0.90;;;;;;;13.59;100.00;100792.03;5012248;28;20034;-85
2023/08/27 04:00:40;;;;;;;0.80;0.80;;;;;;;13.63;100.00;100793.66;5012945;28;20352;-86
2023/08/27 04:03:06;;;;;;;0.80;0.80;;;;;;;13.62;100.00;100781.53;5011932;28;20033;-86
2023/08/27 04:05:31;;;;;;;0.60;0.60;;;;;;;13.67;100.00;100782.25;5012541;28;20022;-86
2023/08/27 04:07:57;;;;;;;0.93;0.90;;;;;;;13.65;100.00;100781.44;5012671;28;20581;-86
2023/08/27 04:10:22;;;;;;;0.70;0.70;;;;;;;13.61;100.00;100773.75;5011788;28;20033;-86
2023/08/27 04:12:47;;;;;;;0.80;0.80;;;;;;;13.65;100.00;100773.59;5012802;28;20030;-86
2023/08/27 04:15:13;;;;;;;0.70;0.70;;;;;;;13.74;100.00;100778.53;5012447;28;20026;-85
2023/08/27 04:17:38;;;;;;;0.80;0.80;;;;;;;13.79;100.00;100793.22;5011259;28;20385;-85
2023/08/27 04:20:19;;;;;;;0.80;0.80;;;;;;;13.79;100.00;100785.38;5012391;28;20034;-86
2023/08/27 04:22:44;;;;;;;0.60;0.60;;;;;;;13.77;100.00;100782.84;5012657;28;20116;-86
2023/08/27 04:25:14;;;;;;;0.93;0.90;;;;;;;13.75;100.00;100788.06;5011374;28;20110;-86
2023/08/27 04:27:39;;;;;;;0.80;0.80;;;;;;;13.77;100.00;100787.19;5012831;28;20081;-86
2023/08/27 04:30:06;;;;;;;0.70;0.70;;;;;;;13.77;100.00;100784.56;5012537;28;20029;-86
2023/08/27 04:32:31;;;;;;;;;;;;;;;13.82;100.00;100799.19;5012452;28;20371;-86
2023/08/27 04:34:57;;;;;;;1.17;1.07;;;;;;;13.80;100.00;100806.19;5013996;28;19936;-85
2023/08/27 04:37:23;;;;;;;0.40;0.40;;;;;;;13.77;100.00;100792.41;5015335;28;20092;-86
2023/08/27 04:39:48;;;;;;;0.55;0.55;;;;;;;13.73;100.00;100781.19;5014953;28;20109;-85
2023/08/27 04:42:14;;;;;;;0.53;0.50;;;;;;;13.77;100.00;100780.22;5015339;28;20452;-85
2023/08/27 04:44:39;;;;;;;0.60;0.60;;;;;;;13.77;100.00;100777.63;5015287;28;20501;-86
2023/08/27 04:47:05;;;;;;;0.67;0.67;;;;;;;13.78;100.00;100778.47;5014813;28;20375;-85
2023/08/27 04:49:30;;;;;;;0.80;0.80;;;;;;;13.77;100.00;100795.88;5019245;28;20029;-86
2023/08/27 04:51:55;;;;;;;0.90;0.80;;;;;;;13.77;100.00;100789.78;5034379;28;20511;-85
2023/08/27 04:54:21;;;;;;;0.80;0.80;;;;;;;13.71;100.00;100799.53;5045104;28;20025;-86
2023/08/27 04:56:46;;;;;;;0.90;0.90;;;;;;;13.71;100.00;100804.72;5039542;28;20124;-86
2023/08/27 04:59:11;;;;;;;0.80;0.80;;;;;;;13.72;100.00;100800.34;5045465;23;20045;-85
2023/08/27 05:01:37;;;;;;;0.60;0.60;;;;;;;13.72;100.00;100803.84;5015768;28;20029;-85
2023/08/27 05:04:02;;;;;;;0.77;0.77;;;;;;;13.72;100.00;100811.66;5026095;28;20041;-86
2023/08/27 05:06:27;;;;;;;0.60;0.60;;;;;;;13.74;100.00;100819.44;5034035;28;20482;-85
2023/08/27 05:08:53;;;;;;;0.77;0.77;;;;;;;13.76;100.00;100822.84;5035274;28;20034;-86
2023/08/27 05:11:18;;;;;;;0.83;0.83;;;;;;;13.75;100.00;100821.16;5034647;28;20033;-85
2023/08/27 05:13:43;;;;;;;0.83;0.83;;;;;;;13.77;100.00;100828.91;5034203;28;20458;-85
2023/08/27 05:16:08;;;;;;;0.73;0.73;;;;;;;13.76;100.00;100817.63;5034777;28;20105;-85
2023/08/27 05:18:34;;;;;;;0.67;0.67;;;;;;;13.77;100.00;100815.88;5035279;28;20532;-85
2023/08/27 05:20:59;;;;;;;0.53;0.53;;;;;;;13.79;100.00;100816.69;5034471;28;20022;-85
2023/08/27 05:23:26;;;;;;;0.60;0.60;;;;;;;13.81;100.00;100809.69;5034704;28;20446;-85
2023/08/27 05:25:51;;;;;;;0.70;0.70;;;;;;;13.81;100.00;100812.28;5034782;28;20105;-85
2023/08/27 05:28:16;;;;;;;0.80;0.80;;;;;;;13.80;100.00;100808.81;5033349;28;20116;-85
2023/08/27 05:30:42;;;;;;;1.10;1.00;;;;;;;13.80;100.00;100813.19;5029835;23;20108;-85
2023/08/27 05:33:07;;;;;;;0.70;0.70;;;;;;;13.80;100.00;100806.19;4999022;28;20109;-85
2023/08/27 05:35:33;;;;;;;0.80;0.80;;;;;;;13.81;100.00;100805.31;5014344;28;20581;-85
2023/08/27 05:37:59;;;;;;;0.75;0.70;;;;;;;13.81;100.00;100805.31;5014612;28;20022;-86
2023/08/27 05:40:24;;;;;;;1.10;1.00;;;;;;;13.78;100.00;100810.63;5014534;28;20087;-85
2023/08/27 05:42:50;;;;;;;1.60;0.90;;;;;;;13.80;100.00;100818.41;5014116;28;20026;-85
2023/08/27 05:45:15;;;;;;;0.80;0.80;;;;;;;13.80;100.00;100810.56;5014956;28;20083;-86
2023/08/27 05:47:41;;;;;;;1.30;1.20;;;;;;;13.81;100.00;100814.91;5014082;28;20459;-85
2023/08/27 05:50:06;;;;;;;1.20;0.90;;;;;;;13.84;100.00;100814.81;5013702;28;20033;-85
2023/08/27 05:52:31;;;;;;;2.00;0.80;;;;;;;13.88;100.00;100817.28;5014250;28;20116;-86
2023/08/27 05:54:57;;;;;;;0.77;0.77;;;;;;;13.95;100.00;100811.88;5014336;28;20528;-83
2023/08/27 05:57:23;;;;;;;1.07;1.07;;;;;;;13.96;100.00;100806.59;5013472;28;20030;-83
2023/08/27 05:59:48;;;;;;;0.80;0.80;;;;;;;13.97;100.00;100790.03;5014314;28;20181;-83
2023/08/27 06:02:13;;;;;;;1.67;0.90;;;;;;;13.99;100.00;100803.91;5013471;28;20026;-85
2023/08/27 06:04:42;;;;;;;1.07;0.90;;;;;;;14.02;100.00;100803.81;5014014;28;20463;-86
2023/08/27 06:07:23;;;;;;;1.20;1.08;;;;;;;13.97;100.00;100789.19;5011037;28;20038;-85
2023/08/27 06:09:48;;;;;;;0.63;0.63;;;;;;;14.08;100.00;100802.78;5012280;28;20040;-86
2023/08/27 06:12:13;;;;;;;0.90;0.90;;;;;;;14.07;100.00;100798.44;5013886;28;20022;-87
2023/08/27 06:14:38;;;;;;;1.37;1.27;;;;;;;14.15;100.00;100788.63;5014141;28;20486;-86
2023/08/27 06:17:04;;;;;;;2.00;1.10;;;;;;;14.24;100.00;100790.09;5013451;28;20022;-87
2023/08/27 06:19:29;;;;;;;1.30;1.20;;;;;;;14.36;100.00;100792.31;5014085;28;20131;-87
2023/08/27 06:21:54;;;;;;;1.33;1.10;;;;;;;14.44;100.00;100793.81;5013692;28;20022;-87
2023/08/27 06:24:20;;;;;;;1.10;1.00;;;;;;;14.48;100.00;100792.84;5012570;28;20022;-87
2023/08/27 06:26:45;;;;;;;2.87;1.40;;;;;;;14.47;100.00;100784.13;5013585;28;20026;-87
2023/08/27 06:29:10;;;;;;;1.20;1.07;;;;;;;14.44;100.00;100776.41;5013427;28;20100;-86
2023/08/27 06:31:36;;;;;;;1.07;1.07;;;;;;;14.49;100.00;100779.72;5013169;28;20137;-87
2023/08/27 06:34:01;;;;;;;1.37;1.27;;;;;;;14.50;100.00;100778.81;5014007;28;20022;-87
2023/08/27 06:36:29;;;;;;;2.20;1.70;;;;;;;14.49;100.00;100777.09;5011500;28;20067;-87
2023/08/27 06:39:04;;;;;;;1.65;1.55;;;;;;;14.50;100.00;100783.19;5011229;28;20376;-87
2023/08/27 06:41:29;;;;;;;1.45;1.35;;;;;;;14.43;100.00;100774.72;5013161;28;20121;-86
2023/08/27 06:43:55;;;;;;;1.93;1.70;;;;;;;14.49;100.00;100784.09;5013696;28;20100;-86
2023/08/27 06:46:20;;;;;;;2.57;2.00;;;;;;;14.51;100.00;100787.53;5012776;28;20072;-86
2023/08/27 06:48:45;;;;;;;2.10;1.87;;;;;;;14.48;100.00;100787.63;5012877;28;20230;-86
2023/08/27 06:51:11;;;;;;;2.63;2.30;;;;;;;14.56;100.00;100787.38;5013249;28;20391;-84
2023/08/27 06:53:36;;;;;;;3.70;2.43;;;;;;;14.54;100.00;100779.56;5012869;28;20521;-87
2023/08/27 06:56:01;;;;;;;3.33;2.30;;;;;;;14.57;100.00;100794.31;5013351;28;20022;-85
2023/08/27 06:58:29;;;;;;;2.30;1.90;;;;;;;14.63;100.00;100788.84;5012817;28;20030;-87
2023/08/27 07:00:54;;;;;;;2.33;2.13;;;;;;;14.63;100.00;100781.03;5013641;28;20041;-86
2023/08/27 07:03:19;;;;;;;4.23;2.53;;;;;;;14.67;100.00;100782.69;5012516;28;20383;-86
2023/08/27 07:05:45;;;;;;;2.43;2.10;;;;;;;14.73;100.00;100792.06;5012553;28;20040;-86
2023/08/27 07:08:10;;;;;;;2.87;2.20;;;;;;;14.80;100.00;100794.44;5012770;28;20061;-86
2023/08/27 07:10:35;;;;;;;2.30;2.10;;;;;;;15.01;100.00;100798.94;5003941;28;20034;-83
2023/08/27 07:13:01;;;;;;;5.47;2.50;;;;;;;16.02;100.00;100788.31;5012204;28;20014;-86
2023/08/27 07:15:41;;;;;;;2.60;2.20;;;;;;;17.89;100.00;100790.88;5012884;28;20037;-85
2023/08/27 07:18:07;;;;;;;3.58;2.17;;;;;;;19.41;94.97;100806.22;4993589;28;20034;-87
2023/08/27 07:20:33;;;;;;;2.47;2.07;;;;;;;20.62;91.96;100807.50;4992405;28;20069;-87
2023/08/27 07:22:59;;;;;;;2.42;1.73;;;;;;;21.41;91.33;100808.97;4993422;28;20512;-89
2023/08/27 07:25:27;;;;;;;2.03;1.50;;;;;;;21.59;84.27;100811.44;4993224;28;20228;-87
2023/08/27 07:27:53;;;;;;;2.28;1.45;;;;;;;20.87;86.04;100800.81;4992897;28;20022;-88
2023/08/27 07:30:23;;;;;;;1.77;1.60;;;;;;;20.05;82.72;100795.78;4984907;28;20046;-87
2023/08/27 07:32:50;;;;;;;2.75;1.90;;;;;;;19.33;85.94;100787.38;4993514;28;20027;-88
2023/08/27 07:35:15;;;;;;;2.63;1.92;;;;;;;18.83;89.19;100795.13;4992180;28;20375;-88
2023/08/27 07:37:41;;;;;;;2.53;1.90;;;;;;;18.32;90.82;100785.38;4993485;28;20029;-87
2023/08/27 07:40:18;;;;;;;3.60;2.30;;;;;;;17.97;89.22;100802.81;4992632;28;20030;-85
2023/08/27 07:42:44;;;;;;;2.83;2.22;;;;;;;17.78;92.41;100805.44;4993041;28;20049;-88
2023/08/27 07:45:09;;;;;;;3.23;2.00;;;;;;;17.58;93.26;100797.53;5001482;28;20458;-88
2023/08/27 07:47:50;;;;;;;3.47;2.27;;;;;;;17.41;92.90;100807.94;5012576;28;20026;-86
2023/08/27 07:50:15;;;;;;;3.97;2.40;;;;;;;17.27;93.83;100813.78;5010415;28;20036;-88
2023/08/27 07:52:41;;;;;;;4.30;2.33;;;;;;;17.09;94.23;100797.09;5012606;28;20026;-87
2023/08/27 07:55:06;;;;;;;2.50;2.10;;;;;;;17.16;95.54;100806.41;5011986;28;20030;-88
2023/08/27 07:57:44;;;;;;;2.20;2.00;;;;;;;17.03;95.53;100787.72;5012082;28;20026;-87
2023/08/27 08:00:13;;;;;;;5.30;2.95;;;;;;;16.91;94.43;100789.09;4994625;28;20080;-82
2023/08/27 08:02:40;;;;;;;2.95;2.30;;;;;;;16.94;95.42;100804.69;4992109;28;20159;-87
2023/08/27 08:05:06;;;;;;;3.60;2.10;;;;;;;16.97;95.60;100798.50;4992414;28;20034;-86
2023/08/27 08:07:46;;;;;;;2.50;2.30;;;;;;;16.97;94.64;100775.72;4992941;28;20037;-87
2023/08/27 08:10:11;;;;;;;4.13;2.70;;;;;;;17.03;95.60;100795.59;4993948;28;20072;-86
2023/08/27 08:12:37;;;;;;;2.47;2.23;;;;;;;17.06;95.67;100791.97;4996841;28;20022;-87
2023/08/27 08:15:02;;;;;;;2.37;2.00;;;;;;;17.14;96.41;100789.91;4996656;28;20030;-86
2023/08/27 08:17:45;;;;;;;4.10;2.43;;;;;;;17.09;95.68;100786.59;4996283;28;20018;-86
2023/08/27 08:20:12;;;;;;;2.50;2.20;;;;;;;17.06;96.45;100791.97;4996496;28;20037;-86
2023/08/27 08:22:38;;;;;;;3.70;2.25;;;;;;;17.02;96.84;100785.19;4996757;28;20046;-87
2023/08/27 08:25:21;;;;;;;5.72;3.00;;;;;;;17.12;94.71;100787.31;4995380;28;20026;-87
2023/08/27 08:27:46;;;;;;;3.30;2.58;;;;;;;17.24;97.57;100782.44;4978745;28;20444;-86
2023/08/27 08:30:12;;;;;;;4.97;2.73;;;;;;;17.45;95.16;100799.84;4994433;28;20109;-86
2023/08/27 08:32:37;;;;;;;3.80;2.70;;;;;;;17.55;93.85;100800.31;4996407;28;20041;-86
2023/08/27 08:35:03;;;;;;;5.53;2.70;;;;;;;17.66;93.02;100794.56;4996121;28;20475;-86
2023/08/27 08:37:28;;;;;;;3.20;2.47;;;;;;;17.79;94.84;100807.97;4995554;28;20018;-88
2023/08/27 08:39:54;;;;;;;3.47;2.23;;;;;;;17.85;92.47;100802.44;4996490;28;20034;-87
2023/08/27 08:42:32;;;;;;;3.40;2.40;;;;;;;17.82;90.53;100804.34;4995909;28;20534;-87
2023/08/27 08:45:29;;;;;;;4.68;2.70;;;;;;;17.72;90.71;100814.44;4998645;28;20026;-87
2023/08/27 08:47:56;;;;;;;2.97;2.20;;;;;;;17.65;90.57;100813.00;5002616;28;20022;-87
2023/08/27 08:50:22;;;;;;;3.47;2.40;;;;;;;17.63;89.98;100805.22;4995665;28;20494;-86
2023/08/27 08:52:50;;;;;;;3.03;2.20;;;;;;;17.67;89.97;100806.78;4995483;28;20030;-86
2023/08/27 08:55:17;;;;;;;2.15;1.90;;;;;;;17.71;91.62;100804.88;4995931;28;20101;-87
2023/08/27 08:58:03;;;;;;;3.55;2.00;;;;;;;17.83;91.08;100806.94;4995915;28;20102;-86
2023/08/27 09:00:29;;;;;;;2.28;1.98;;;;;;;17.83;89.81;100791.19;4995982;28;20041;-87
2023/08/27 09:02:56;;;;;;;4.35;2.28;;;;;;;17.81;89.77;100797.41;4995881;28;20069;-86
2023/08/27 09:05:21;;;;;;;2.20;2.00;;;;;;;17.88;90.96;100793.59;4994920;28;20065;-86
2023/08/27 09:07:48;;;;;;;2.70;2.07;;;;;;;18.02;90.96;100790.34;5034562;23;20081;-86
2023/08/27 09:10:14;;;;;;;3.13;2.13;;;;;;;18.19;88.16;100777.22;5037626;28;20029;-87
2023/08/27 09:12:41;;;;;;;2.42;1.73;;;;;;;18.33;88.77;100789.72;5038376;28;20385;-86
2023/08/27 09:15:22;;;;;;;1.85;1.50;;;;;;;18.37;90.87;100778.09;5035547;28;20030;-86
2023/08/27 09:17:48;;;;;;;1.98;1.77;;;;;;;18.45;88.96;100784.78;5036567;28;20025;-85
2023/08/27 09:20:13;;;;;;;1.57;1.47;;;;;;;18.42;89.33;100774.41;5034058;28;20033;-85
2023/08/27 09:22:40;;;;;;;1.60;1.50;;;;;;;18.34;87.46;100770.41;5034166;28;20276;-86
2023/08/27 09:25:06;;;;;;;2.63;1.70;;;;;;;18.42;87.21;100775.25;5034453;28;20096;-85
2023/08/27 09:27:32;;;;;;;2.95;1.75;;;;;;;18.54;83.98;100768.56;5034186;28;20415;-85
2023/08/27 09:30:00;;;;;;;1.67;1.53;;;;;;;18.66;87.07;100778.47;5034269;28;20029;-84
2023/08/27 09:32:26;;;;;;;1.92;1.80;;;;;;;18.78;82.25;100765.63;5033904;28;20276;-85
2023/08/27 09:34:59;;;;;;;1.90;1.60;;;;;;;18.95;82.55;100763.00;5030685;28;20044;-84
2023/08/27 09:37:28;;;;;;;3.80;1.63;;;;;;;19.05;82.08;100759.88;5033506;28;20025;-84
2023/08/27 09:39:54;;;;;;;3.35;1.90;;;;;;;19.18;82.42;100757.47;5037082;28;20022;-84
2023/08/27 09:42:21;;;;;;;3.58;1.80;;;;;;;19.26;84.12;100753.47;5053307;28;20029;-85
2023/08/27 09:44:50;;;;;;;3.47;1.65;;;;;;;19.31;82.66;100747.13;5043155;28;20501;-85
2023/08/27 09:47:29;;;;;;;2.22;1.70;;;;;;;19.48;80.94;100749.69;5041926;28;20037;-85
2023/08/27 09:49:55;;;;;;;4.22;1.83;;;;;;;19.70;79.83;100748.53;5054127;28;20481;-85
2023/08/27 09:52:24;;;;;;;2.47;1.67;;;;;;;19.83;77.88;100744.25;5053857;28;20028;-84
2023/08/27 09:54:51;;;;;;;2.22;1.77;;;;;;;19.94;79.73;100742.84;5047275;28;20030;-85
2023/08/27 09:57:17;;;;;;;;;;;;;;;20.02;74.54;100756.44;5034220;28;20033;-80
2023/08/27 09:59:43;;;;;;;2.53;1.70;;;;;;;20.12;77.90;100746.22;5034357;28;19909;-84
2023/08/27 10:02:12;;;;;;;2.97;1.83;;;;;;;20.22;74.91;100760.56;5032624;28;20065;-84
2023/08/27 10:04:58;;;;;;;2.30;1.58;;;;;;;20.20;78.37;100751.94;5033865;28;20112;-84
2023/08/27 10:07:24;;;;;;;;;;;;;;;20.24;71.87;100755.22;5033942;28;20052;-86
2023/08/27 10:09:50;;;;;;;;;;;;;;;20.31;76.63;100756.56;5033551;28;19913;-87
2023/08/27 10:12:16;;;;;;;3.13;1.67;;;;;;;20.39;74.47;100756.13;5033251;28;19939;-84
2023/08/27 10:14:43;;;;;;;2.90;1.80;;;;;;;20.42;76.10;100743.59;5033490;28;20029;-82
2023/08/27 10:17:10;;;;;;;3.42;1.73;;;;;;;20.58;73.69;100759.38;5032676;28;20496;-85
2023/08/27 10:19:36;;;;;;;3.97;1.70;;;;;;;20.64;73.02;100751.13;5030014;28;20026;-80
2023/08/27 10:22:04;;;;;;;1.90;1.30;;;;;;;20.77;72.82;100763.59;5033229;28;20107;-86
2023/08/27 10:24:30;;;;;;;3.63;1.50;;;;;;;20.92;71.00;100752.13;5033047;28;20040;-85
2023/08/27 10:27:05;;;;;;;3.13;1.58;;;;;;;20.95;70.76;100753.72;5033514;28;20080;-85
2023/08/27 10:29:33;;;;;;;2.75;1.80;;;;;;;20.85;68.40;100752.56;5031986;28;20367;-85
2023/08/27 10:31:59;;;;;;;1.80;1.70;;;;;;;20.96;72.07;100748.38;5032938;28;20036;-85
2023/08/27 10:34:28;;;;;;;4.13;1.60;;;;;;;21.19;71.56;100759.31;5033330;28;20017;-85
2023/08/27 10:36:56;;;;;;;3.97;1.55;;;;;;;21.05;68.71;100760.16;5032171;28;20029;-86
2023/08/27 10:39:25;;;;;;;3.42;1.70;;;;;;;20.81;71.08;100747.50;5032890;28;20026;-87
2023/08/27 10:41:50;;;;;;;2.33;1.45;;;;;;;20.70;70.41;100743.75;5032717;28;20017;-86
2023/08/27 10:44:19;;;;;;;1.27;1.13;;;;;;;20.78;71.93;100760.00;4997904;28;20565;-87
2023/08/27 10:47:15;;;;;;;1.95;1.50;;;;;;;20.74;70.27;100764.63;5021930;28;20099;-87
2023/08/27 10:49:41;;;;;;;1.85;1.20;;;;;;;20.58;70.44;100762.00;5028387;28;20064;-87
2023/08/27 10:52:20;;;;;;;1.10;1.10;;;;;;;20.41;73.95;100757.72;5031160;28;20034;-87
2023/08/27 10:54:59;;;;;;;1.13;0.95;;;;;;;20.39;73.89;100758.75;5033074;28;20028;-86
2023/08/27 10:57:24;;;;;;;2.65;1.10;;;;;;;20.46;70.79;100750.41;5032363;28;20044;-86
2023/08/27 10:59:52;;;;;;;3.37;1.43;;;;;;;20.73;68.70;100752.34;5031956;28;20026;-86
2023/08/27 11:02:18;;;;;;;2.85;1.30;;;;;;;20.90;71.58;100755.78;5032775;28;20018;-86
2023/08/27 11:04:53;;;;;;;2.63;1.23;;;;;;;21.10;69.46;100754.59;5031194;28;20037;-87
2023/08/27 11:07:19;;;;;;;1.30;1.20;;;;;;;21.33;65.75;100754.97;5019478;28;20033;-86
2023/08/27 11:09:47;;;;;;;1.27;1.10;;;;;;;21.52;67.05;100747.59;5011731;28;20091;-87
2023/08/27 11:12:27;;;;;;;1.40;1.08;;;;;;;21.74;67.19;100743.59;4992449;28;20062;-87
2023/08/27 11:14:54;;;;;;;1.23;0.90;;;;;;;21.78;66.01;100742.47;4993234;28;20026;-87
2023/08/27 11:17:28;;;;;;;3.15;1.08;;;;;;;21.56;66.96;100783.38;5010025;28;20509;-87
2023/08/27 11:19:57;;;;;;;1.88;0.90;;;;;;;21.05;57.30;100789.19;5012058;28;20105;-87
2023/08/27 11:22:23;;;;;;;1.65;1.05;;;;;;;20.43;60.06;100798.03;5012159;28;20026;-87
2023/08/27 11:24:49;;;;;;;;;;;;;;;19.97;60.97;100798.00;5011898;28;20449;-87